createdAt,value
2018-09-25T01:31:05.700Z,8.37
2018-09-25T01:31:06.272Z,8.40
2018-09-25T01:31:06.873Z,8.36
2018-09-25T01:31:07.473Z,8.40
2018-09-25T01:31:08.072Z,8.36
2018-09-25T01:31:08.675Z,8.39
2018-09-25T01:31:09.273Z,8.39
2018-09-25T01:31:09.872Z,8.37
2018-09-25T01:32:03.327Z,8.37
2018-09-25T01:32:03.924Z,8.35
2018-09-25T01:32:04.526Z,8.40
2018-09-25T01:32:05.125Z,8.40
2018-09-25T01:32:05.727Z,8.35
2018-09-25T01:32:06.327Z,8.45
2018-09-25T01:32:06.925Z,8.36
2018-09-25T01:32:07.523Z,8.40
2018-09-25T01:33:02.004Z,8.37
2018-09-25T01:33:02.600Z,8.40
2018-09-25T01:33:03.199Z,8.39
2018-09-25T01:33:03.805Z,8.35
2018-09-25T01:33:04.400Z,8.37
2018-09-25T01:33:05.002Z,8.40
2018-09-25T01:33:05.600Z,8.40
2018-09-25T01:33:06.201Z,8.37
2018-09-25T01:34:00.767Z,8.35
2018-09-25T01:34:01.277Z,8.42
2018-09-25T01:34:01.876Z,8.36
2018-09-25T01:34:02.477Z,8.36
2018-09-25T01:34:03.075Z,8.36
2018-09-25T01:34:03.681Z,8.40
2018-09-25T01:34:04.278Z,8.39
2018-09-25T01:34:04.884Z,8.36
2018-09-25T01:34:58.334Z,8.35
2018-09-25T01:34:58.930Z,8.37
2018-09-25T01:34:59.530Z,8.36
2018-09-25T01:35:00.129Z,8.37
2018-09-25T01:35:00.730Z,8.45
2018-09-25T01:35:01.330Z,8.35
2018-09-25T01:35:01.929Z,8.42
2018-09-25T01:35:02.529Z,8.36
2018-09-25T01:35:57.010Z,8.30
2018-09-25T01:35:57.606Z,8.30
2018-09-25T01:35:58.206Z,8.35
2018-09-25T01:35:58.805Z,8.33
2018-09-25T01:35:59.405Z,8.36
2018-09-25T01:36:00.013Z,8.35
2018-09-25T01:36:00.604Z,8.37
2018-09-25T01:36:01.205Z,8.42
2018-09-25T01:36:55.686Z,8.39
2018-09-25T01:36:56.283Z,8.28
2018-09-25T01:36:56.882Z,8.39
2018-09-25T01:36:57.480Z,8.36
2018-09-25T01:36:58.082Z,8.40
2018-09-25T01:36:58.682Z,8.44
2018-09-25T01:36:59.280Z,8.33
2018-09-25T01:36:59.881Z,8.37
2018-09-25T01:37:53.336Z,8.39
2018-09-25T01:37:53.935Z,8.39
2018-09-25T01:37:54.535Z,8.45
2018-09-25T01:37:55.135Z,8.36
2018-09-25T01:37:55.734Z,8.40
2018-09-25T01:37:56.333Z,8.42
2018-09-25T01:37:56.933Z,8.36
2018-09-25T01:37:57.534Z,8.37
2018-09-25T01:38:51.015Z,8.33
2018-09-25T01:38:51.587Z,8.37
2018-09-25T01:38:52.186Z,8.36
2018-09-25T01:38:52.786Z,8.40
2018-09-25T01:38:53.386Z,8.40
2018-09-25T01:38:53.985Z,8.32
2018-09-25T01:38:54.586Z,8.40
2018-09-25T01:38:55.184Z,8.40
2018-09-25T01:39:49.664Z,8.42
2018-09-25T01:39:50.261Z,8.42
2018-09-25T01:39:50.860Z,8.39
2018-09-25T01:39:51.463Z,8.36
2018-09-25T01:39:52.061Z,8.39
2018-09-25T01:39:52.663Z,8.37
2018-09-25T01:39:53.260Z,8.32
2018-09-25T01:39:53.864Z,8.42
2018-09-25T01:40:47.317Z,8.36
2018-09-25T01:40:47.916Z,8.40
2018-09-25T01:40:48.514Z,8.45
2018-09-25T01:40:49.114Z,8.39
2018-09-25T01:40:49.713Z,8.48
2018-09-25T01:40:50.313Z,8.44
2018-09-25T01:40:50.914Z,8.32
2018-09-25T01:40:51.515Z,8.42
2018-09-25T01:41:44.967Z,8.44
2018-09-25T01:41:45.565Z,8.42
2018-09-25T01:41:46.166Z,8.45
2018-09-25T01:41:46.765Z,8.47
2018-09-25T01:41:47.365Z,8.37
2018-09-25T01:41:47.965Z,8.42
2018-09-25T01:41:48.564Z,8.48
2018-09-25T01:41:49.164Z,8.45
2018-09-25T01:42:43.647Z,8.50
2018-09-25T01:42:44.241Z,8.40
2018-09-25T01:42:44.840Z,8.40
2018-09-25T01:42:45.444Z,8.37
2018-09-25T01:42:46.041Z,8.47
2018-09-25T01:42:46.640Z,8.45
2018-09-25T01:42:47.239Z,8.44
2018-09-25T01:42:47.840Z,8.42
2018-09-25T01:43:42.345Z,8.44
2018-09-25T01:43:42.916Z,8.44
2018-09-25T01:43:43.517Z,8.48
2018-09-25T01:43:44.117Z,8.45
2018-09-25T01:43:44.715Z,8.45
2018-09-25T01:43:45.317Z,8.48
2018-09-25T01:43:45.916Z,8.53
2018-09-25T01:43:46.515Z,8.45
2018-09-25T01:44:39.972Z,8.44
2018-09-25T01:44:40.570Z,8.50
2018-09-25T01:44:41.170Z,8.53
2018-09-25T01:44:41.770Z,8.51
2018-09-25T01:44:42.369Z,8.48
2018-09-25T01:44:42.969Z,8.47
2018-09-25T01:44:43.569Z,8.54
2018-09-25T01:44:44.168Z,8.50
2018-09-25T01:45:37.624Z,8.53
2018-09-25T01:45:38.221Z,8.53
2018-09-25T01:45:38.822Z,8.50
2018-09-25T01:45:39.421Z,8.51
2018-09-25T01:45:40.021Z,8.47
2018-09-25T01:45:40.622Z,8.53
2018-09-25T01:45:41.220Z,8.47
2018-09-25T01:45:41.819Z,8.50
2018-09-25T01:46:36.297Z,8.51
2018-09-25T01:46:36.896Z,8.55
2018-09-25T01:46:37.496Z,8.55
2018-09-25T01:46:38.096Z,8.58
2018-09-25T01:46:38.696Z,8.51
2018-09-25T01:46:39.296Z,8.54
2018-09-25T01:46:39.896Z,8.55
2018-09-25T01:46:40.496Z,8.50
2018-09-25T01:47:34.975Z,8.54
2018-09-25T01:47:35.571Z,8.58
2018-09-25T01:47:36.172Z,8.51
2018-09-25T01:47:36.773Z,8.54
2018-09-25T01:47:37.372Z,8.60
2018-09-25T01:47:37.972Z,8.53
2018-09-25T01:47:38.571Z,8.50
2018-09-25T01:47:39.172Z,8.51
2018-09-25T01:48:33.649Z,8.54
2018-09-25T01:48:34.245Z,8.57
2018-09-25T01:48:34.848Z,8.58
2018-09-25T01:48:35.447Z,8.62
2018-09-25T01:48:36.049Z,8.54
2018-09-25T01:48:36.646Z,8.63
2018-09-25T01:48:37.247Z,8.55
2018-09-25T01:48:37.846Z,8.57
2018-09-25T01:49:31.327Z,8.51
2018-09-25T01:49:31.901Z,8.58
2018-09-25T01:49:32.500Z,8.55
2018-09-25T01:49:33.100Z,8.63
2018-09-25T01:49:33.701Z,8.68
2018-09-25T01:49:34.301Z,8.58
2018-09-25T01:49:34.900Z,8.63
2018-09-25T01:49:35.500Z,8.57
2018-09-25T01:50:28.954Z,8.57
2018-09-25T01:50:29.551Z,8.58
2018-09-25T01:50:30.151Z,8.62
2018-09-25T01:50:30.752Z,8.66
2018-09-25T01:50:31.352Z,8.63
2018-09-25T01:50:31.950Z,8.66
2018-09-25T01:50:32.550Z,8.62
2018-09-25T01:50:33.152Z,8.58
2018-09-25T01:51:26.606Z,8.65
2018-09-25T01:51:27.202Z,8.66
2018-09-25T01:51:27.803Z,8.73
2018-09-25T01:51:28.404Z,8.65
2018-09-25T01:51:29.004Z,8.72
2018-09-25T01:51:29.604Z,8.65
2018-09-25T01:51:30.202Z,8.69
2018-09-25T01:51:30.803Z,8.68
2018-09-25T01:52:24.260Z,8.76
2018-09-25T01:52:24.858Z,8.66
2018-09-25T01:52:25.457Z,8.72
2018-09-25T01:52:26.060Z,8.68
2018-09-25T01:52:26.656Z,8.66
2018-09-25T01:52:27.259Z,8.75
2018-09-25T01:52:27.856Z,8.73
2018-09-25T01:52:28.455Z,8.65
2018-09-25T01:53:21.908Z,8.71
2018-09-25T01:53:22.507Z,8.73
2018-09-25T01:53:23.107Z,8.73
2018-09-25T01:53:23.707Z,8.66
2018-09-25T01:53:24.307Z,8.68
2018-09-25T01:53:24.908Z,8.71
2018-09-25T01:53:25.505Z,8.71
2018-09-25T01:53:26.106Z,8.73
2018-09-25T01:54:20.611Z,8.71
2018-09-25T01:54:21.182Z,8.68
2018-09-25T01:54:21.781Z,8.71
2018-09-25T01:54:22.381Z,8.69
2018-09-25T01:54:22.984Z,8.66
2018-09-25T01:54:23.581Z,8.81
2018-09-25T01:54:24.181Z,8.71
2018-09-25T01:54:24.782Z,8.79
2018-09-25T01:55:18.241Z,8.76
2018-09-25T01:55:18.835Z,8.78
2018-09-25T01:55:19.436Z,8.83
2018-09-25T01:55:20.034Z,8.69
2018-09-25T01:55:20.636Z,8.79
2018-09-25T01:55:21.278Z,8.78
2018-09-25T01:55:21.853Z,8.81
2018-09-25T01:55:22.452Z,8.73
2018-09-25T01:56:15.888Z,8.79
2018-09-25T01:56:16.486Z,8.72
2018-09-25T01:56:17.087Z,8.78
2018-09-25T01:56:17.686Z,8.75
2018-09-25T01:56:18.284Z,8.86
2018-09-25T01:56:18.887Z,8.81
2018-09-25T01:56:19.486Z,8.72
2018-09-25T01:56:20.085Z,8.83
2018-09-25T01:57:14.564Z,8.72
2018-09-25T01:57:15.162Z,8.90
2018-09-25T01:57:15.762Z,8.81
2018-09-25T01:57:16.361Z,8.86
2018-09-25T01:57:16.964Z,8.94
2018-09-25T01:57:17.562Z,8.84
2018-09-25T01:57:18.162Z,8.86
2018-09-25T01:57:18.761Z,8.86
2018-09-25T01:58:13.240Z,8.94
2018-09-25T01:58:13.838Z,8.86
2018-09-25T01:58:14.437Z,8.86
2018-09-25T01:58:15.037Z,8.87
2018-09-25T01:58:15.637Z,8.93
2018-09-25T01:58:16.238Z,8.84
2018-09-25T01:58:16.836Z,8.91
2018-09-25T01:58:17.435Z,8.88
2018-09-25T01:59:11.943Z,8.91
2018-09-25T01:59:12.511Z,8.96
2018-09-25T01:59:13.116Z,8.94
2018-09-25T01:59:13.713Z,8.96
2018-09-25T01:59:14.311Z,8.91
2018-09-25T01:59:14.912Z,8.86
2018-09-25T01:59:15.513Z,8.88
2018-09-25T01:59:16.112Z,8.87
2018-09-25T02:00:09.573Z,8.93
2018-09-25T02:00:10.165Z,9.01
2018-09-25T02:00:10.767Z,8.96
2018-09-25T02:00:11.365Z,8.93
2018-09-25T02:00:11.966Z,8.97
2018-09-25T02:00:12.564Z,8.99
2018-09-25T02:00:13.164Z,8.97
2018-09-25T02:00:13.765Z,8.97
2018-09-25T02:01:07.221Z,8.97
2018-09-25T02:01:07.817Z,9.01
2018-09-25T02:01:08.419Z,8.94
2018-09-25T02:01:09.016Z,8.97
2018-09-25T02:01:09.614Z,8.94
2018-09-25T02:01:10.215Z,8.94
2018-09-25T02:01:10.814Z,9.04
2018-09-25T02:01:11.414Z,8.99
2018-09-25T02:02:05.894Z,8.94
2018-09-25T02:02:06.492Z,9.06
2018-09-25T02:02:07.094Z,8.97
2018-09-25T02:02:07.691Z,8.97
2018-09-25T02:02:08.292Z,9.01
2018-09-25T02:02:08.891Z,9.01
2018-09-25T02:02:09.491Z,8.96
2018-09-25T02:02:10.090Z,8.99
2018-09-25T02:03:04.570Z,9.04
2018-09-25T02:03:05.168Z,9.04
2018-09-25T02:03:05.767Z,8.99
2018-09-25T02:03:06.367Z,8.99
2018-09-25T02:03:06.966Z,9.09
2018-09-25T02:03:07.567Z,9.09
2018-09-25T02:03:08.167Z,8.97
2018-09-25T02:03:08.766Z,9.09
2018-09-25T02:04:02.245Z,9.04
2018-09-25T02:04:02.821Z,9.04
2018-09-25T02:04:03.418Z,9.12
2018-09-25T02:04:04.020Z,9.04
2018-09-25T02:04:04.621Z,9.06
2018-09-25T02:04:05.221Z,9.09
2018-09-25T02:04:05.824Z,9.06
2018-09-25T02:04:06.418Z,9.06
2018-09-25T02:05:00.899Z,9.09
2018-09-25T02:05:01.495Z,9.10
2018-09-25T02:05:02.098Z,9.10
2018-09-25T02:05:02.694Z,9.10
2018-09-25T02:05:03.295Z,9.10
2018-09-25T02:05:03.895Z,9.10
2018-09-25T02:05:04.494Z,9.10
2018-09-25T02:05:05.095Z,9.13
2018-09-25T02:05:59.575Z,9.12
2018-09-25T02:06:00.172Z,9.12
2018-09-25T02:06:00.771Z,9.13
2018-09-25T02:06:01.371Z,9.16
2018-09-25T02:06:01.970Z,9.16
2018-09-25T02:06:02.570Z,9.09
2018-09-25T02:06:03.170Z,9.10
2018-09-25T02:06:03.770Z,9.12
2018-09-25T02:06:58.249Z,9.05
2018-09-25T02:06:58.846Z,9.12
2018-09-25T02:06:59.446Z,9.13
2018-09-25T02:07:00.047Z,9.15
2018-09-25T02:07:00.646Z,9.15
2018-09-25T02:07:01.250Z,9.23
2018-09-25T02:07:01.848Z,9.21
2018-09-25T02:07:02.445Z,9.23
2018-09-25T02:07:55.902Z,9.12
2018-09-25T02:07:56.499Z,9.18
2018-09-25T02:07:57.098Z,9.15
2018-09-25T02:07:57.698Z,9.21
2018-09-25T02:07:58.298Z,9.16
2018-09-25T02:07:58.899Z,9.18
2018-09-25T02:07:59.498Z,9.10
2018-09-25T02:08:00.098Z,9.21
2018-09-25T02:08:54.578Z,9.13
2018-09-25T02:08:55.174Z,9.20
2018-09-25T02:08:55.773Z,9.20
2018-09-25T02:08:56.374Z,9.09
2018-09-25T02:08:56.973Z,9.13
2018-09-25T02:08:57.574Z,9.06
2018-09-25T02:08:58.174Z,9.10
2018-09-25T02:08:58.774Z,9.25
2018-09-25T02:10:04.949Z,9.16
2018-09-25T02:10:05.524Z,9.13
2018-09-25T02:10:06.120Z,9.15
2018-09-25T02:10:06.721Z,9.13
2018-09-25T02:10:07.322Z,9.10
2018-09-25T02:10:07.920Z,9.10
2018-09-25T02:10:08.521Z,9.15
2018-09-25T02:10:09.123Z,9.13
2018-09-25T02:11:03.601Z,9.15
2018-09-25T02:11:04.200Z,9.15
2018-09-25T02:11:04.801Z,9.10
2018-09-25T02:11:05.398Z,9.15
2018-09-25T02:11:05.998Z,9.18
2018-09-25T02:11:06.599Z,9.13
2018-09-25T02:11:07.199Z,9.13
2018-09-25T02:11:07.797Z,9.12
2018-09-25T02:12:01.255Z,9.13
2018-09-25T02:12:01.852Z,9.23
2018-09-25T02:12:02.453Z,9.23
2018-09-25T02:12:03.051Z,9.16
2018-09-25T02:12:03.651Z,9.15
2018-09-25T02:12:04.252Z,9.09
2018-09-25T02:12:04.851Z,9.25
2018-09-25T02:12:05.451Z,9.30
2018-09-25T02:12:58.908Z,9.13
2018-09-25T02:12:59.504Z,9.28
2018-09-25T02:13:00.104Z,9.23
2018-09-25T02:13:00.703Z,9.15
2018-09-25T02:13:01.303Z,9.24
2018-09-25T02:13:01.904Z,9.24
2018-09-25T02:13:02.503Z,9.27
2018-09-25T02:13:03.102Z,9.30
2018-09-25T02:13:57.582Z,9.13
2018-09-25T02:13:58.179Z,9.24
2018-09-25T02:13:58.777Z,9.24
2018-09-25T02:13:59.377Z,9.21
2018-09-25T02:13:59.977Z,9.24
2018-09-25T02:14:00.577Z,9.25
2018-09-25T02:14:01.177Z,9.16
2018-09-25T02:14:01.784Z,9.21
2018-09-25T02:14:56.280Z,9.23
2018-09-25T02:14:56.859Z,9.28
2018-09-25T02:14:57.454Z,9.30
2018-09-25T02:14:58.054Z,9.25
2018-09-25T02:14:58.656Z,9.27
2018-09-25T02:14:59.252Z,9.23
2018-09-25T02:14:59.852Z,9.30
2018-09-25T02:15:00.457Z,9.21
2018-09-25T02:15:54.932Z,9.23
2018-09-25T02:15:55.529Z,9.21
2018-09-25T02:15:56.128Z,9.24
2018-09-25T02:15:56.730Z,9.28
2018-09-25T02:15:57.329Z,9.25
2018-09-25T02:15:57.929Z,9.28
2018-09-25T02:15:58.530Z,9.34
2018-09-25T02:15:59.128Z,9.28
2018-09-25T02:16:52.585Z,9.27
2018-09-25T02:16:53.182Z,9.24
2018-09-25T02:16:53.781Z,9.30
2018-09-25T02:16:54.382Z,9.23
2018-09-25T02:16:54.981Z,9.31
2018-09-25T02:16:55.582Z,9.31
2018-09-25T02:16:56.180Z,9.30
2018-09-25T02:16:56.783Z,9.24
2018-09-25T02:17:50.236Z,9.32
2018-09-25T02:17:50.833Z,9.27
2018-09-25T02:17:51.433Z,9.23
2018-09-25T02:17:52.034Z,9.27
2018-09-25T02:17:52.633Z,9.28
2018-09-25T02:17:53.234Z,9.25
2018-09-25T02:17:53.834Z,9.28
2018-09-25T02:17:54.434Z,9.28
2018-09-25T02:18:47.889Z,9.27
2018-09-25T02:18:48.485Z,9.27
2018-09-25T02:18:49.086Z,9.27
2018-09-25T02:18:49.686Z,9.25
2018-09-25T02:18:50.290Z,9.25
2018-09-25T02:18:50.890Z,9.28
2018-09-25T02:18:51.485Z,9.24
2018-09-25T02:18:52.084Z,9.28
2018-09-25T02:19:45.565Z,9.25
2018-09-25T02:19:46.139Z,9.23
2018-09-25T02:19:46.737Z,9.30
2018-09-25T02:19:47.336Z,9.25
2018-09-25T02:19:48.003Z,9.24
2018-09-25T02:19:48.614Z,9.27
2018-09-25T02:19:49.181Z,9.25
2018-09-25T02:19:49.737Z,9.27
2018-09-25T02:20:44.213Z,9.12
2018-09-25T02:20:44.811Z,9.23
2018-09-25T02:20:45.411Z,9.24
2018-09-25T02:20:46.014Z,9.09
2018-09-25T02:20:46.612Z,9.13
2018-09-25T02:20:47.213Z,9.10
2018-09-25T02:20:47.811Z,9.16
2018-09-25T02:20:48.411Z,9.05
2018-09-25T02:21:42.892Z,9.13
2018-09-25T02:21:43.488Z,9.13
2018-09-25T02:21:44.088Z,9.18
2018-09-25T02:21:44.687Z,9.05
2018-09-25T02:21:45.288Z,9.13
2018-09-25T02:21:45.889Z,9.18
2018-09-25T02:21:46.487Z,9.16
2018-09-25T02:21:47.087Z,9.13
2018-09-25T02:22:40.542Z,9.09
2018-09-25T02:22:41.139Z,9.09
2018-09-25T02:22:41.738Z,9.09
2018-09-25T02:22:42.340Z,9.13
2018-09-25T02:22:42.939Z,9.10
2018-09-25T02:22:43.540Z,9.09
2018-09-25T02:22:44.139Z,9.12
2018-09-25T02:22:44.740Z,9.06
2018-09-25T02:23:39.219Z,9.09
2018-09-25T02:23:39.815Z,9.10
2018-09-25T02:23:40.415Z,9.10
2018-09-25T02:23:41.019Z,9.12
2018-09-25T02:23:41.614Z,9.15
2018-09-25T02:23:42.216Z,9.09
2018-09-25T02:23:42.815Z,9.12
2018-09-25T02:23:43.415Z,9.12
2018-09-25T02:24:37.917Z,9.10
2018-09-25T02:24:38.491Z,9.06
2018-09-25T02:24:39.091Z,9.06
2018-09-25T02:24:39.690Z,9.20
2018-09-25T02:24:40.291Z,9.10
2018-09-25T02:24:40.891Z,9.05
2018-09-25T02:24:41.490Z,9.12
2018-09-25T02:24:42.092Z,9.09
2018-09-25T02:25:35.567Z,9.09
2018-09-25T02:25:36.143Z,9.18
2018-09-25T02:25:36.744Z,9.16
2018-09-25T02:25:37.344Z,9.15
2018-09-25T02:25:37.946Z,9.12
2018-09-25T02:25:38.543Z,9.15
2018-09-25T02:25:39.143Z,9.15
2018-09-25T02:25:39.744Z,9.23
2018-09-25T02:26:34.221Z,9.13
2018-09-25T02:26:34.818Z,9.16
2018-09-25T02:26:35.418Z,9.13
2018-09-25T02:26:36.017Z,9.23
2018-09-25T02:26:36.629Z,9.20
2018-09-25T02:26:37.217Z,9.12
2018-09-25T02:26:37.822Z,9.13
2018-09-25T02:26:38.417Z,9.15
2018-09-25T02:27:31.873Z,9.23
2018-09-25T02:27:32.471Z,9.23
2018-09-25T02:27:33.071Z,9.21
2018-09-25T02:27:33.670Z,9.23
2018-09-25T02:27:34.272Z,9.27
2018-09-25T02:27:34.870Z,9.30
2018-09-25T02:27:35.471Z,9.23
2018-09-25T02:27:36.071Z,9.23
2018-09-25T02:28:29.526Z,9.24
2018-09-25T02:28:30.126Z,9.23
2018-09-25T02:28:30.721Z,9.21
2018-09-25T02:28:31.324Z,9.31
2018-09-25T02:28:31.925Z,9.25
2018-09-25T02:28:32.526Z,9.30
2018-09-25T02:28:33.122Z,9.27
2018-09-25T02:28:33.723Z,9.30
2018-09-25T02:29:27.177Z,9.30
2018-09-25T02:29:27.774Z,9.28
2018-09-25T02:29:28.375Z,9.24
2018-09-25T02:29:28.973Z,9.28
2018-09-25T02:29:29.573Z,9.25
2018-09-25T02:29:30.177Z,9.31
2018-09-25T02:29:30.773Z,9.28
2018-09-25T02:29:31.375Z,9.24
2018-09-25T02:30:24.858Z,9.21
2018-09-25T02:30:25.427Z,9.24
2018-09-25T02:30:26.026Z,9.24
2018-09-25T02:30:26.631Z,9.30
2018-09-25T02:30:27.225Z,9.28
2018-09-25T02:30:27.825Z,9.30
2018-09-25T02:30:28.425Z,9.27
2018-09-25T02:30:29.025Z,9.21
2018-09-25T02:31:22.481Z,9.13
2018-09-25T02:31:23.079Z,9.25
2018-09-25T02:31:23.676Z,9.23
2018-09-25T02:31:24.276Z,9.24
2018-09-25T02:31:24.877Z,9.24
2018-09-25T02:31:25.477Z,9.23
2018-09-25T02:31:26.076Z,9.20
2018-09-25T02:31:26.677Z,9.20
2018-09-25T02:32:21.156Z,9.16
2018-09-25T02:32:21.752Z,9.24
2018-09-25T02:32:22.355Z,9.27
2018-09-25T02:32:22.952Z,9.25
2018-09-25T02:32:23.551Z,9.23
2018-09-25T02:32:24.151Z,9.21
2018-09-25T02:32:24.751Z,9.25
2018-09-25T02:32:25.351Z,9.20
2018-09-25T02:33:18.807Z,9.13
2018-09-25T02:33:19.408Z,9.09
2018-09-25T02:33:20.005Z,9.16
2018-09-25T02:33:20.605Z,9.21
2018-09-25T02:33:21.204Z,9.15
2018-09-25T02:33:21.805Z,9.24
2018-09-25T02:33:22.404Z,9.28
2018-09-25T02:33:23.009Z,9.10
2018-09-25T02:34:16.460Z,9.21
2018-09-25T02:34:17.057Z,9.15
2018-09-25T02:34:17.656Z,9.16
2018-09-25T02:34:18.256Z,9.15
2018-09-25T02:34:18.855Z,9.18
2018-09-25T02:34:19.457Z,9.10
2018-09-25T02:34:20.056Z,9.13
2018-09-25T02:34:20.655Z,9.13
2018-09-25T02:35:14.135Z,9.13
2018-09-25T02:35:14.707Z,9.15
2018-09-25T02:35:15.308Z,9.18
2018-09-25T02:35:15.908Z,9.18
2018-09-25T02:35:16.507Z,9.27
2018-09-25T02:35:17.108Z,9.18
2018-09-25T02:35:17.710Z,9.09
2018-09-25T02:35:18.308Z,9.06
2018-09-25T02:36:11.762Z,9.10
2018-09-25T02:36:12.361Z,9.13
2018-09-25T02:36:12.960Z,9.25
2018-09-25T02:36:13.560Z,9.13
2018-09-25T02:36:14.159Z,9.24
2018-09-25T02:36:14.763Z,9.23
2018-09-25T02:36:15.359Z,9.23
2018-09-25T02:36:15.959Z,9.20
2018-09-25T02:37:09.413Z,9.16
2018-09-25T02:37:10.013Z,9.27
2018-09-25T02:37:10.613Z,9.23
2018-09-25T02:37:11.210Z,9.24
2018-09-25T02:37:11.811Z,9.21
2018-09-25T02:37:12.412Z,9.09
2018-09-25T02:37:13.010Z,9.25
2018-09-25T02:37:13.612Z,9.24
2018-09-25T02:38:08.090Z,9.18
2018-09-25T02:38:08.692Z,9.18
2018-09-25T02:38:09.286Z,9.13
2018-09-25T02:38:09.886Z,9.13
2018-09-25T02:38:10.488Z,9.18
2018-09-25T02:38:11.084Z,9.13
2018-09-25T02:38:11.683Z,9.05
2018-09-25T02:38:12.284Z,9.13
2018-09-25T02:39:05.741Z,9.15
2018-09-25T02:39:06.339Z,9.13
2018-09-25T02:39:06.940Z,9.06
2018-09-25T02:39:07.539Z,9.13
2018-09-25T02:39:08.137Z,9.16
2018-09-25T02:39:08.739Z,9.15
2018-09-25T02:39:09.339Z,9.20
2018-09-25T02:39:09.938Z,9.15
2018-09-25T02:40:03.417Z,9.21
2018-09-25T02:40:03.990Z,9.16
2018-09-25T02:40:04.590Z,9.23
2018-09-25T02:40:05.190Z,9.20
2018-09-25T02:40:05.791Z,9.09
2018-09-25T02:40:06.392Z,9.09
2018-09-25T02:40:06.990Z,9.25
2018-09-25T02:40:07.591Z,9.21
2018-09-25T02:41:02.068Z,9.13
2018-09-25T02:41:02.665Z,9.21
2018-09-25T02:41:03.263Z,9.12
2018-09-25T02:41:03.866Z,9.15
2018-09-25T02:41:04.464Z,9.13
2018-09-25T02:41:05.066Z,9.13
2018-09-25T02:41:05.664Z,9.13
2018-09-25T02:41:06.264Z,9.10
2018-09-25T02:41:59.720Z,9.16
2018-09-25T02:42:00.317Z,9.27
2018-09-25T02:42:00.919Z,9.25
2018-09-25T02:42:01.518Z,9.23
2018-09-25T02:42:02.119Z,9.21
2018-09-25T02:42:02.720Z,9.18
2018-09-25T02:42:03.318Z,9.23
2018-09-25T02:42:03.918Z,9.09
2018-09-25T02:42:57.373Z,9.16
2018-09-25T02:42:57.970Z,9.23
2018-09-25T02:42:58.570Z,9.30
2018-09-25T02:42:59.170Z,9.27
2018-09-25T02:42:59.768Z,9.25
2018-09-25T02:43:00.370Z,9.21
2018-09-25T02:43:00.971Z,9.30
2018-09-25T02:43:01.569Z,9.23
2018-09-25T02:43:56.048Z,9.30
2018-09-25T02:43:56.644Z,9.23
2018-09-25T02:43:57.245Z,9.25
2018-09-25T02:43:57.845Z,9.27
2018-09-25T02:43:58.444Z,9.24
2018-09-25T02:43:59.045Z,9.27
2018-09-25T02:43:59.646Z,9.31
2018-09-25T02:44:00.246Z,9.31
2018-09-25T02:44:54.748Z,9.28
2018-09-25T02:44:55.320Z,9.25
2018-09-25T02:44:55.921Z,9.27
2018-09-25T02:44:56.520Z,9.24
2018-09-25T02:44:57.120Z,9.27
2018-09-25T02:44:57.722Z,9.23
2018-09-25T02:44:58.323Z,9.30
2018-09-25T02:44:58.918Z,9.31
2018-09-25T02:45:53.399Z,9.30
2018-09-25T02:45:53.997Z,9.23
2018-09-25T02:45:54.595Z,9.31
2018-09-25T02:45:55.201Z,9.25
2018-09-25T02:45:55.796Z,9.31
2018-09-25T02:45:56.397Z,9.27
2018-09-25T02:45:56.998Z,9.25
2018-09-25T02:45:57.596Z,9.30
2018-09-25T02:46:51.565Z,9.25
2018-09-25T02:46:52.168Z,9.27
2018-09-25T02:46:52.763Z,9.27
2018-09-25T02:46:53.359Z,9.24
2018-09-25T02:46:53.958Z,9.34
2018-09-25T02:46:54.560Z,9.27
2018-09-25T02:46:55.157Z,9.27
2018-09-25T02:47:48.703Z,9.25
2018-09-25T02:47:49.304Z,9.25
2018-09-25T02:47:49.900Z,9.30
2018-09-25T02:47:50.500Z,9.25
2018-09-25T02:47:51.100Z,9.23
2018-09-25T02:47:51.700Z,9.27
2018-09-25T02:47:52.300Z,9.30
2018-09-25T02:47:52.899Z,9.32
2018-09-25T02:48:46.356Z,9.30
2018-09-25T02:48:46.952Z,9.28
2018-09-25T02:48:47.553Z,9.35
2018-09-25T02:48:48.152Z,9.32
2018-09-25T02:48:48.757Z,9.35
2018-09-25T02:48:49.353Z,9.32
2018-09-25T02:48:49.951Z,9.39
2018-09-25T02:48:50.552Z,9.35
2018-09-25T02:49:45.029Z,9.40
2018-09-25T02:49:45.627Z,9.39
2018-09-25T02:49:46.227Z,9.38
2018-09-25T02:49:46.827Z,9.35
2018-09-25T02:49:47.427Z,9.40
2018-09-25T02:49:48.028Z,9.35
2018-09-25T02:49:48.626Z,9.28
2018-09-25T02:49:49.227Z,9.39
2018-09-25T02:50:42.707Z,9.31
2018-09-25T02:50:43.280Z,9.35
2018-09-25T02:50:43.879Z,9.32
2018-09-25T02:50:44.478Z,9.34
2018-09-25T02:50:45.079Z,9.32
2018-09-25T02:50:45.683Z,9.40
2018-09-25T02:50:46.280Z,9.39
2018-09-25T02:50:46.879Z,9.39
2018-09-25T02:51:41.358Z,9.32
2018-09-25T02:51:41.954Z,9.35
2018-09-25T02:51:42.552Z,9.30
2018-09-25T02:51:43.157Z,9.42
2018-09-25T02:51:43.760Z,9.42
2018-09-25T02:51:44.354Z,9.39
2018-09-25T02:51:44.953Z,9.32
2018-09-25T02:51:45.553Z,9.31
2018-09-25T02:52:39.009Z,9.40
2018-09-25T02:52:39.606Z,9.43
2018-09-25T02:52:40.205Z,9.43
2018-09-25T02:52:40.806Z,9.42
2018-09-25T02:52:41.404Z,9.40
2018-09-25T02:52:42.007Z,9.42
2018-09-25T02:52:42.605Z,9.45
2018-09-25T02:52:43.205Z,9.45
2018-09-25T02:53:37.682Z,9.32
2018-09-25T02:53:38.281Z,9.42
2018-09-25T02:53:38.881Z,9.45
2018-09-25T02:53:39.482Z,9.46
2018-09-25T02:53:40.081Z,9.50
2018-09-25T02:53:40.682Z,9.42
2018-09-25T02:53:41.282Z,9.46
2018-09-25T02:53:41.881Z,9.42
2018-09-25T02:54:35.341Z,9.45
2018-09-25T02:54:35.934Z,9.49
2018-09-25T02:54:36.534Z,9.46
2018-09-25T02:54:37.135Z,9.46
2018-09-25T02:54:37.736Z,9.48
2018-09-25T02:54:38.335Z,9.49
2018-09-25T02:54:38.934Z,9.50
2018-09-25T02:54:39.539Z,9.40
2018-09-25T02:55:34.041Z,9.50
2018-09-25T02:55:34.608Z,9.48
2018-09-25T02:55:35.209Z,9.46
2018-09-25T02:55:35.808Z,9.38
2018-09-25T02:55:36.406Z,9.49
2018-09-25T02:55:37.010Z,9.42
2018-09-25T02:55:37.608Z,9.46
2018-09-25T02:55:38.207Z,9.43
2018-09-25T02:56:32.693Z,9.40
2018-09-25T02:56:33.285Z,9.38
2018-09-25T02:56:33.887Z,9.46
2018-09-25T02:56:34.485Z,9.39
2018-09-25T02:56:35.084Z,9.45
2018-09-25T02:56:35.686Z,9.40
2018-09-25T02:56:36.285Z,9.42
2018-09-25T02:56:36.884Z,9.40
2018-09-25T02:57:31.368Z,9.39
2018-09-25T02:57:31.963Z,9.50
2018-09-25T02:57:32.561Z,9.50
2018-09-25T02:57:33.159Z,9.50
2018-09-25T02:57:33.763Z,9.50
2018-09-25T02:57:34.361Z,9.39
2018-09-25T02:57:34.963Z,9.49
2018-09-25T02:57:35.558Z,9.57
2018-09-25T02:58:30.038Z,9.48
2018-09-25T02:58:30.637Z,9.50
2018-09-25T02:58:31.262Z,9.50
2018-09-25T02:58:31.837Z,9.48
2018-09-25T02:58:32.436Z,9.52
2018-09-25T02:58:33.037Z,9.43
2018-09-25T02:58:33.636Z,9.52
2018-09-25T02:58:34.237Z,9.50
2018-09-25T02:59:27.694Z,9.45
2018-09-25T02:59:28.291Z,9.46
2018-09-25T02:59:28.893Z,9.50
2018-09-25T02:59:29.498Z,9.52
2018-09-25T02:59:30.090Z,9.45
2018-09-25T02:59:30.689Z,9.42
2018-09-25T02:59:31.301Z,9.56
2018-09-25T02:59:31.892Z,9.53
2018-09-25T03:00:25.346Z,9.45
2018-09-25T03:00:25.941Z,9.46
2018-09-25T03:00:26.540Z,9.34
2018-09-25T03:00:27.143Z,9.45
2018-09-25T03:00:27.740Z,9.45
2018-09-25T03:00:28.340Z,9.42
2018-09-25T03:00:28.941Z,9.40
2018-09-25T03:00:29.538Z,9.42
2018-09-25T03:01:24.045Z,9.48
2018-09-25T03:01:24.615Z,9.48
2018-09-25T03:01:25.215Z,9.46
2018-09-25T03:01:25.815Z,9.38
2018-09-25T03:01:26.415Z,9.50
2018-09-25T03:01:27.016Z,9.45
2018-09-25T03:01:27.619Z,9.43
2018-09-25T03:01:28.213Z,9.42
2018-09-25T03:02:22.695Z,9.46
2018-09-25T03:02:23.305Z,9.48
2018-09-25T03:02:23.889Z,9.48
2018-09-25T03:02:24.489Z,9.46
2018-09-25T03:02:25.089Z,9.43
2018-09-25T03:02:25.689Z,9.52
2018-09-25T03:02:26.293Z,9.42
2018-09-25T03:02:26.891Z,9.42
2018-09-25T03:03:20.348Z,9.42
2018-09-25T03:03:20.944Z,9.49
2018-09-25T03:03:21.543Z,9.49
2018-09-25T03:03:22.144Z,9.42
2018-09-25T03:03:22.744Z,9.46
2018-09-25T03:03:23.344Z,9.42
2018-09-25T03:03:23.943Z,9.52
2018-09-25T03:03:24.543Z,9.43
2018-09-25T03:04:18.001Z,9.46
2018-09-25T03:04:18.595Z,9.35
2018-09-25T03:04:19.195Z,9.48
2018-09-25T03:04:19.796Z,9.50
2018-09-25T03:04:20.395Z,9.43
2018-09-25T03:04:20.994Z,9.42
2018-09-25T03:04:21.593Z,9.45
2018-09-25T03:04:22.194Z,9.43
2018-09-25T03:05:15.652Z,9.50
2018-09-25T03:05:16.247Z,9.46
2018-09-25T03:05:16.849Z,9.49
2018-09-25T03:05:17.449Z,9.48
2018-09-25T03:05:18.046Z,9.35
2018-09-25T03:05:18.647Z,9.43
2018-09-25T03:05:19.245Z,9.48
2018-09-25T03:05:19.845Z,9.43
2018-09-25T03:06:13.324Z,9.48
2018-09-25T03:06:13.899Z,9.46
2018-09-25T03:06:14.499Z,9.48
2018-09-25T03:06:15.098Z,9.42
2018-09-25T03:06:15.698Z,9.40
2018-09-25T03:06:16.299Z,9.38
2018-09-25T03:06:16.900Z,9.39
2018-09-25T03:06:17.498Z,9.48
2018-09-25T03:07:10.954Z,9.42
2018-09-25T03:07:11.551Z,9.42
2018-09-25T03:07:12.150Z,9.42
2018-09-25T03:07:12.751Z,9.49
2018-09-25T03:07:13.349Z,9.46
2018-09-25T03:07:13.952Z,9.48
2018-09-25T03:07:14.549Z,9.45
2018-09-25T03:07:15.150Z,9.48